Time,TemperatureF,DewpointF,PressureIn,WindDirection,WindDirectionDegrees,WindSpeedMPH,WindSpeedGustMPH,Humidity,HourlyPrecipIn,Conditions,Clouds,dailyrainin,SoftwareType,DateUTC
2013-08-20 00:00:00,61.4,61.1,30.20,SW,229,0.0,2.0,99,0.00,,,1.08,Wunderground v.1.15,2013-08-20 04:00:00,
2013-08-20 00:02:00,61.4,61.1,30.20,SW,229,0.0,2.0,99,0.00,,,0.00,Wunderground v.1.15,2013-08-20 04:02:00,
2013-08-20 00:04:00,61.4,61.1,30.20,SW,229,0.0,2.0,99,0.00,,,0.00,Wunderground v.1.15,2013-08-20 04:04:00,
2013-08-20 00:06:00,61.4,61.1,30.20,SW,229,0.0,2.0,99,0.00,,,0.00,Wunderground v.1.15,2013-08-20 04:06:00,
2013-08-20 00:12:00,61.3,61.0,30.20,SW,229,0.0,2.0,99,0.00,,,0.00,Wunderground v.1.15,2013-08-20 04:12:00,
2013-08-20 00:16:00,61.3,61.0,30.20,SW,219,0.0,2.0,99,0.00,,,0.00,Wunderground v.1.15,2013-08-20 04:16:00,
2013-08-20 00:22:00,61.2,60.9,30.20,SW,219,0.0,2.0,99,0.00,,,0.00,Wunderground v.1.15,2013-08-20 04:22:00,
2013-08-20 00:28:00,61.2,61.2,30.20,SW,219,0.0,2.0,100,0.00,,,0.00,Wunderground v.1.15,2013-08-20 04:28:00,
2013-08-20 00:34:00,61.1,61.1,30.20,SW,219,0.0,2.0,100,0.00,,,0.00,Wunderground v.1.15,2013-08-20 04:34:00,
2013-08-20 00:40:00,61.1,61.1,30.20,SW,219,0.0,2.0,100,0.00,,,0.00,Wunderground v.1.15,2013-08-20 04:40:00,
2013-08-20 00:46:00,61.0,61.0,30.20,SW,219,0.0,2.0,100,0.00,,,0.00,Wunderground v.1.15,2013-08-20 04:46:00,
2013-08-20 00:52:00,60.9,60.9,30.20,SW,219,0.0,2.0,100,0.00,,,0.00,Wunderground v.1.15,2013-08-20 04:52:00,
2013-08-20 00:58:00,60.9,60.9,30.20,SW,219,0.0,2.0,100,0.00,,,0.00,Wunderground v.1.15,2013-08-20 04:58:00,
2013-08-20 01:04:00,60.9,60.9,30.20,SW,219,0.0,2.0,100,0.00,,,0.00,Wunderground v.1.15,2013-08-20 05:04:00,
2013-08-20 01:10:00,60.9,60.9,30.20,SW,219,0.0,2.0,100,0.00,,,0.00,Wunderground v.1.15,2013-08-20 05:10:00,
2013-08-20 01:16:00,60.9,60.9,30.20,SW,224,1.0,2.0,100,0.00,,,0.00,Wunderground v.1.15,2013-08-20 05:16:00,
2013-08-20 01:22:00,60.9,60.9,30.20,SW,224,1.0,2.0,100,0.00,,,0.00,Wunderground v.1.15,2013-08-20 05:22:00,
2013-08-20 01:28:00,60.8,60.8,30.20,SW,223,0.0,2.0,100,0.00,,,0.00,Wunderground v.1.15,2013-08-20 05:28:00,
2013-08-20 01:34:00,60.8,60.8,30.19,SW,224,0.0,2.0,100,0.00,,,0.00,Wunderground v.1.15,2013-08-20 05:34:00,
2013-08-20 01:40:00,60.8,60.8,30.19,SW,224,0.0,2.0,100,0.00,,,0.00,Wunderground v.1.15,2013-08-20 05:40:00,
2013-08-20 01:46:00,60.8,60.8,30.19,SW,224,0.0,2.0,100,0.00,,,0.00,Wunderground v.1.15,2013-08-20 05:46:00,
2013-08-20 01:52:00,60.8,60.8,30.19,SW,217,1.0,2.0,100,0.00,,,0.00,Wunderground v.1.15,2013-08-20 05:52:00,
2013-08-20 01:58:00,60.8,60.8,30.19,SW,217,1.0,2.0,100,0.00,,,0.00,Wunderground v.1.15,2013-08-20 05:58:00,
2013-08-20 02:04:00,60.8,60.8,30.19,SW,217,0.0,2.0,100,0.00,,,0.00,Wunderground v.1.15,2013-08-20 06:04:00,
2013-08-20 02:10:00,60.8,60.8,30.19,SW,217,0.0,2.0,100,0.00,,,0.00,Wunderground v.1.15,2013-08-20 06:10:00,
2013-08-20 02:16:00,60.9,60.9,30.19,SW,217,0.0,2.0,100,0.00,,,0.00,Wunderground v.1.15,2013-08-20 06:16:00,
2013-08-20 02:22:00,60.9,60.9,30.18,SW,217,0.0,2.0,100,0.00,,,0.00,Wunderground v.1.15,2013-08-20 06:22:00,
2013-08-20 02:28:00,60.9,60.9,30.19,SW,217,0.0,2.0,100,0.00,,,0.00,Wunderground v.1.15,2013-08-20 06:28:00,
2013-08-20 02:34:00,60.9,60.9,30.18,SW,217,0.0,2.0,100,0.00,,,0.00,Wunderground v.1.15,2013-08-20 06:34:00,
2013-08-20 02:40:00,60.9,60.9,30.18,SW,217,0.0,2.0,100,0.00,,,0.00,Wunderground v.1.15,2013-08-20 06:40:00,
2013-08-20 02:46:00,60.7,60.7,30.18,SW,217,0.0,2.0,100,0.00,,,0.00,Wunderground v.1.15,2013-08-20 06:46:00,
2013-08-20 02:52:00,60.6,60.6,30.18,SW,217,0.0,2.0,100,0.00,,,0.00,Wunderground v.1.15,2013-08-20 06:52:00,
2013-08-20 02:58:00,60.6,60.6,30.17,SW,217,0.0,2.0,100,0.00,,,0.00,Wunderground v.1.15,2013-08-20 06:58:00,
2013-08-20 03:04:00,60.5,60.5,30.18,SW,217,0.0,2.0,100,0.00,,,0.00,Wunderground v.1.15,2013-08-20 07:04:00,
2013-08-20 03:10:00,60.5,60.5,30.18,SW,217,0.0,2.0,100,0.00,,,0.00,Wunderground v.1.15,2013-08-20 07:10:00,
2013-08-20 03:16:00,60.6,60.6,30.17,SW,217,0.0,2.0,100,0.00,,,0.00,Wunderground v.1.15,2013-08-20 07:16:00,
2013-08-20 03:22:00,60.6,60.6,30.17,SW,217,0.0,2.0,100,0.00,,,0.00,Wunderground v.1.15,2013-08-20 07:22:00,
2013-08-20 03:28:00,60.6,60.6,30.17,SW,215,0.0,2.0,100,0.00,,,0.00,Wunderground v.1.15,2013-08-20 07:28:00,
2013-08-20 03:34:00,60.6,60.6,30.17,SW,215,0.0,2.0,100,0.00,,,0.00,Wunderground v.1.15,2013-08-20 07:34:00,
2013-08-20 03:40:00,60.6,60.6,30.18,SW,215,0.0,2.0,100,0.00,,,0.00,Wunderground v.1.15,2013-08-20 07:40:00,
2013-08-20 03:46:00,60.6,60.6,30.18,SW,217,0.0,2.0,100,0.00,,,0.00,Wunderground v.1.15,2013-08-20 07:46:00,
2013-08-20 03:52:00,60.7,60.7,30.17,SSW,205,0.0,2.0,100,0.00,,,0.00,Wunderground v.1.15,2013-08-20 07:52:00,
2013-08-20 03:58:00,60.7,60.7,30.17,SSW,205,0.0,2.0,100,0.00,,,0.00,Wunderground v.1.15,2013-08-20 07:58:00,
2013-08-20 04:04:00,60.7,60.7,30.17,SSW,205,0.0,2.0,100,0.00,,,0.00,Wunderground v.1.15,2013-08-20 08:04:00,
2013-08-20 04:10:00,60.7,60.7,30.17,SSW,205,0.0,2.0,100,0.00,,,0.00,Wunderground v.1.15,2013-08-20 08:10:00,
2013-08-20 04:16:00,60.7,60.7,30.17,SSE,165,0.0,2.0,100,0.00,,,0.00,Wunderground v.1.15,2013-08-20 08:16:00,
2013-08-20 04:22:00,60.5,60.5,30.17,SSE,160,0.0,2.0,100,0.00,,,0.00,Wunderground v.1.15,2013-08-20 08:22:00,
2013-08-20 04:28:00,60.6,60.6,30.17,SW,227,1.0,2.0,100,0.00,,,0.00,Wunderground v.1.15,2013-08-20 08:28:00,
2013-08-20 04:34:00,60.6,60.6,30.17,SSE,159,0.0,2.0,100,0.00,,,0.00,Wunderground v.1.15,2013-08-20 08:34:00,
2013-08-20 04:40:00,60.5,60.5,30.17,SSE,157,0.0,2.0,100,0.00,,,0.00,Wunderground v.1.15,2013-08-20 08:40:00,
2013-08-20 04:46:00,60.6,60.6,30.17,SSE,156,0.0,2.0,100,0.00,,,0.00,Wunderground v.1.15,2013-08-20 08:46:00,
2013-08-20 04:52:00,60.6,60.6,30.17,SSE,153,0.0,2.0,100,0.00,,,0.00,Wunderground v.1.15,2013-08-20 08:52:00,
2013-08-20 04:58:00,60.5,60.5,30.17,SW,215,0.0,2.0,100,0.00,,,0.00,Wunderground v.1.15,2013-08-20 08:58:00,
2013-08-20 05:04:00,60.5,60.5,30.17,SE,134,0.0,2.0,100,0.00,,,0.00,Wunderground v.1.15,2013-08-20 09:04:00,
2013-08-20 05:10:00,60.4,60.4,30.17,SSE,167,1.0,1.0,100,0.00,,,0.00,Wunderground v.1.15,2013-08-20 09:10:00,
2013-08-20 05:16:00,60.4,60.4,30.17,SSE,166,0.0,2.0,100,0.00,,,0.00,Wunderground v.1.15,2013-08-20 09:16:00,
2013-08-20 05:22:00,60.5,60.5,30.17,SSE,167,0.0,2.0,100,0.00,,,0.00,Wunderground v.1.15,2013-08-20 09:22:00,
2013-08-20 05:28:00,60.5,60.5,30.17,SSE,167,0.0,2.0,100,0.00,,,0.00,Wunderground v.1.15,2013-08-20 09:28:00,
2013-08-20 05:34:00,60.4,60.4,30.17,SSE,162,0.0,2.0,100,0.00,,,0.00,Wunderground v.1.15,2013-08-20 09:34:00,
2013-08-20 05:40:00,60.4,60.4,30.17,SSE,162,0.0,2.0,100,0.00,,,0.00,Wunderground v.1.15,2013-08-20 09:40:00,
2013-08-20 05:46:00,60.5,60.5,30.17,SSE,162,0.0,2.0,100,0.00,,,0.00,Wunderground v.1.15,2013-08-20 09:46:00,
2013-08-20 05:52:00,60.5,60.5,30.18,SW,226,0.0,2.0,100,0.00,,,0.00,Wunderground v.1.15,2013-08-20 09:52:00,
2013-08-20 05:58:00,60.5,60.5,30.18,SW,226,0.0,2.0,100,0.00,,,0.00,Wunderground v.1.15,2013-08-20 09:58:00,
2013-08-20 06:04:00,60.6,60.6,30.18,SSW,212,0.0,2.0,100,0.00,,,0.00,Wunderground v.1.15,2013-08-20 10:04:00,
2013-08-20 06:10:00,60.5,60.5,30.18,WSW,238,0.0,2.0,100,0.00,,,0.00,Wunderground v.1.15,2013-08-20 10:10:00,
2013-08-20 06:16:00,60.4,60.4,30.18,SW,223,1.0,2.0,100,0.00,,,0.00,Wunderground v.1.15,2013-08-20 10:16:00,
2013-08-20 06:22:00,60.3,60.3,30.18,SE,134,1.0,2.0,100,0.00,,,0.00,Wunderground v.1.15,2013-08-20 10:22:00,
2013-08-20 06:28:00,60.3,60.3,30.18,SSW,210,0.0,2.0,100,0.00,,,0.00,Wunderground v.1.15,2013-08-20 10:28:00,
2013-08-20 06:34:00,60.3,60.3,30.19,SSE,160,0.0,2.0,100,0.00,,,0.00,Wunderground v.1.15,2013-08-20 10:34:00,
2013-08-20 06:40:00,60.2,60.2,30.19,SW,222,0.0,2.0,100,0.00,,,0.00,Wunderground v.1.15,2013-08-20 10:40:00,
2013-08-20 06:46:00,60.1,60.1,30.19,SW,223,0.0,2.0,100,0.00,,,0.00,Wunderground v.1.15,2013-08-20 10:46:00,
2013-08-20 06:52:00,60.1,60.1,30.19,SW,222,0.0,2.0,100,0.00,,,0.00,Wunderground v.1.15,2013-08-20 10:52:00,
2013-08-20 06:58:00,60.1,60.1,30.19,SW,222,0.0,2.0,100,0.00,,,0.00,Wunderground v.1.15,2013-08-20 10:58:00,
2013-08-20 07:04:00,60.1,60.1,30.20,SW,222,0.0,2.0,100,0.00,,,0.00,Wunderground v.1.15,2013-08-20 11:04:00,
2013-08-20 07:10:00,60.1,60.1,30.20,SW,223,0.0,2.0,100,0.00,,,0.00,Wunderground v.1.15,2013-08-20 11:10:00,
2013-08-20 07:16:00,60.0,60.0,30.20,SW,222,0.0,2.0,100,0.00,,,0.00,Wunderground v.1.15,2013-08-20 11:16:00,
2013-08-20 07:22:00,59.9,59.9,30.20,SW,222,0.0,2.0,100,0.00,,,0.00,Wunderground v.1.15,2013-08-20 11:22:00,
2013-08-20 07:28:00,59.7,59.7,30.20,SW,222,0.0,2.0,100,0.00,,,0.00,Wunderground v.1.15,2013-08-20 11:28:00,
2013-08-20 07:34:00,59.9,59.9,30.20,SW,222,0.0,2.0,100,0.00,,,0.00,Wunderground v.1.15,2013-08-20 11:34:00,
2013-08-20 07:40:00,60.0,60.0,30.21,SW,223,0.0,2.0,100,0.00,,,0.00,Wunderground v.1.15,2013-08-20 11:40:00,
2013-08-20 07:46:00,60.1,60.1,30.21,SW,222,1.0,2.0,100,0.00,,,0.00,Wunderground v.1.15,2013-08-20 11:46:00,
2013-08-20 07:52:00,60.0,60.0,30.21,SSE,155,0.0,2.0,100,0.00,,,0.00,Wunderground v.1.15,2013-08-20 11:52:00,
2013-08-20 07:58:00,60.1,60.1,30.20,SSE,155,0.0,2.0,100,0.00,,,0.00,Wunderground v.1.15,2013-08-20 11:58:00,
2013-08-20 08:04:00,60.3,60.3,30.20,SSE,155,0.0,2.0,100,0.00,,,0.00,Wunderground v.1.15,2013-08-20 12:04:00,
2013-08-20 08:10:00,60.9,60.9,30.20,SSE,155,0.0,2.0,100,0.00,,,0.00,Wunderground v.1.15,2013-08-20 12:10:00,
2013-08-20 08:16:00,61.3,61.3,30.21,SSE,156,0.0,2.0,100,0.00,,,0.00,Wunderground v.1.15,2013-08-20 12:16:00,
2013-08-20 08:22:00,61.3,61.3,30.21,SSE,155,0.0,2.0,100,0.00,,,0.00,Wunderground v.1.15,2013-08-20 12:22:00,
2013-08-20 08:28:00,61.1,61.1,30.21,SE,126,0.0,2.0,100,0.00,,,0.00,Wunderground v.1.15,2013-08-20 12:28:00,
2013-08-20 08:34:00,60.8,60.8,30.21,SE,126,0.0,2.0,100,0.00,,,0.00,Wunderground v.1.15,2013-08-20 12:34:00,
2013-08-20 08:40:00,60.8,60.8,30.21,SE,124,0.0,2.0,100,0.00,,,0.00,Wunderground v.1.15,2013-08-20 12:40:00,
2013-08-20 08:46:00,61.2,61.2,30.22,SE,124,0.0,2.0,100,0.00,,,0.00,Wunderground v.1.15,2013-08-20 12:46:00,
2013-08-20 08:52:00,61.6,61.6,30.22,SE,124,0.0,2.0,100,0.00,,,0.00,Wunderground v.1.15,2013-08-20 12:52:00,
2013-08-20 08:58:00,62.1,62.1,30.22,ESE,122,0.0,2.0,100,0.00,,,0.00,Wunderground v.1.15,2013-08-20 12:58:00,
2013-08-20 09:04:00,63.3,63.3,30.23,ESE,122,0.0,2.0,100,0.00,,,0.00,Wunderground v.1.15,2013-08-20 13:04:00,
2013-08-20 09:10:00,64.1,64.1,30.23,SE,139,0.0,2.0,100,0.00,,,0.00,Wunderground v.1.15,2013-08-20 13:10:00,
2013-08-20 09:18:00,64.4,64.4,30.23,SE,138,0.0,2.0,100,0.00,,,0.00,Wunderground v.1.15,2013-08-20 13:18:00,
2013-08-20 09:24:00,64.7,64.4,30.23,SE,139,0.0,2.0,99,0.00,,,0.00,Wunderground v.1.15,2013-08-20 13:24:00,
2013-08-20 09:30:00,65.2,64.9,30.23,SE,138,0.0,2.0,99,0.00,,,0.00,Wunderground v.1.15,2013-08-20 13:30:00,
2013-08-20 09:36:00,65.7,65.1,30.23,NW,320,0.0,2.0,98,0.00,,,0.00,Wunderground v.1.15,2013-08-20 13:36:00,
2013-08-20 09:42:00,66.4,65.5,30.23,NW,321,0.0,2.0,97,0.00,,,0.00,Wunderground v.1.15,2013-08-20 13:42:00,
2013-08-20 09:48:00,66.7,65.2,30.23,NW,320,0.0,2.0,95,0.00,,,0.00,Wunderground v.1.15,2013-08-20 13:48:00,
2013-08-20 09:54:00,67.4,65.6,30.23,NW,320,0.0,2.0,94,0.00,,,0.00,Wunderground v.1.15,2013-08-20 13:54:00,
2013-08-20 10:00:00,67.4,65.3,30.24,North,352,0.0,2.0,93,0.00,,,0.00,Wunderground v.1.15,2013-08-20 14:00:00,
2013-08-20 10:06:00,67.1,64.7,30.24,ENE,60,0.0,2.0,92,0.00,,,0.00,Wunderground v.1.15,2013-08-20 14:06:00,
2013-08-20 10:12:00,66.5,63.8,30.24,ESE,107,0.0,2.0,91,0.00,,,0.00,Wunderground v.1.15,2013-08-20 14:12:00,
2013-08-20 10:18:00,66.7,64.6,30.24,ESE,107,0.0,2.0,93,0.00,,,0.00,Wunderground v.1.15,2013-08-20 14:18:00,
2013-08-20 10:24:00,66.9,64.8,30.24,ESE,107,0.0,2.0,93,0.00,,,0.00,Wunderground v.1.15,2013-08-20 14:24:00,
2013-08-20 10:30:00,67.5,65.7,30.24,SSE,158,0.0,2.0,94,0.00,,,0.00,Wunderground v.1.15,2013-08-20 14:30:00,
2013-08-20 10:36:00,67.6,65.2,30.25,SSE,158,0.0,2.0,92,0.00,,,0.00,Wunderground v.1.15,2013-08-20 14:36:00,
2013-08-20 10:42:00,67.5,65.4,30.25,SW,214,0.0,2.0,93,0.00,,,0.00,Wunderground v.1.15,2013-08-20 14:42:00,
2013-08-20 10:48:00,67.2,64.8,30.25,WNW,293,0.0,2.0,92,0.00,,,0.00,Wunderground v.1.15,2013-08-20 14:48:00,
2013-08-20 10:54:00,67.0,64.9,30.25,WNW,293,0.0,2.0,93,0.00,,,0.00,Wunderground v.1.15,2013-08-20 14:54:00,
2013-08-20 11:00:00,66.9,64.8,30.25,WNW,301,0.0,2.0,93,0.00,,,0.00,Wunderground v.1.15,2013-08-20 15:00:00,
2013-08-20 11:06:00,66.7,64.6,30.25,SSE,149,0.0,2.0,93,0.00,,,0.00,Wunderground v.1.15,2013-08-20 15:06:00,
2013-08-20 11:12:00,66.6,64.8,30.25,SSE,148,0.0,2.0,94,0.00,,,0.00,Wunderground v.1.15,2013-08-20 15:12:00,
2013-08-20 11:18:00,66.4,64.6,30.25,SSE,148,0.0,2.0,94,0.00,,,0.00,Wunderground v.1.15,2013-08-20 15:18:00,
2013-08-20 11:24:00,66.2,64.4,30.25,SSE,148,0.0,2.0,94,0.00,,,0.00,Wunderground v.1.15,2013-08-20 15:24:00,
2013-08-20 11:30:00,66.0,64.2,30.25,SSE,148,0.0,2.0,94,0.00,,,0.00,Wunderground v.1.15,2013-08-20 15:30:00,
2013-08-20 11:36:00,65.7,63.9,30.26,SE,146,0.0,2.0,94,0.00,,,0.00,Wunderground v.1.15,2013-08-20 15:36:00,
2013-08-20 11:42:00,65.6,64.1,30.26,SE,145,0.0,2.0,95,0.00,,,0.00,Wunderground v.1.15,2013-08-20 15:42:00,
2013-08-20 11:48:00,65.3,63.8,30.25,SE,145,0.0,2.0,95,0.00,,,0.00,Wunderground v.1.15,2013-08-20 15:48:00,
2013-08-20 11:54:00,65.2,63.7,30.26,SE,146,0.0,2.0,95,0.00,,,0.00,Wunderground v.1.15,2013-08-20 15:54:00,
2013-08-20 12:00:00,65.3,64.1,30.26,SE,145,0.0,2.0,96,0.00,,,0.00,Wunderground v.1.15,2013-08-20 16:00:00,
2013-08-20 12:06:00,65.7,64.5,30.26,SE,145,0.0,2.0,96,0.00,,,0.00,Wunderground v.1.15,2013-08-20 16:06:00,
2013-08-20 12:12:00,67.0,66.1,30.25,NW,320,0.0,2.0,97,0.00,,,0.00,Wunderground v.1.15,2013-08-20 16:12:00,
2013-08-20 12:18:00,68.9,67.4,30.25,NE,46,0.0,2.0,95,0.00,,,0.00,Wunderground v.1.15,2013-08-20 16:18:00,
2013-08-20 12:24:00,70.0,67.3,30.25,ENE,70,0.0,2.0,91,0.00,,,0.00,Wunderground v.1.15,2013-08-20 16:24:00,
2013-08-20 12:30:00,69.9,66.2,30.26,NE,56,0.0,2.0,88,0.00,,,0.00,Wunderground v.1.15,2013-08-20 16:30:00,
2013-08-20 12:36:00,70.5,67.1,30.26,East,91,0.0,2.0,89,0.00,,,0.00,Wunderground v.1.15,2013-08-20 16:36:00,
2013-08-20 12:42:00,71.2,66.8,30.25,ENE,60,1.0,2.0,86,0.00,,,0.00,Wunderground v.1.15,2013-08-20 16:42:00,
2013-08-20 12:48:00,70.7,66.0,30.25,ENE,64,1.0,2.0,85,0.00,,,0.00,Wunderground v.1.15,2013-08-20 16:48:00,
2013-08-20 12:54:00,70.4,66.3,30.25,ESE,106,1.0,2.0,87,0.00,,,0.00,Wunderground v.1.15,2013-08-20 16:54:00,
2013-08-20 13:00:00,70.5,66.8,30.25,East,96,1.0,1.0,88,0.00,,,0.00,Wunderground v.1.15,2013-08-20 17:00:00,
2013-08-20 13:06:00,70.5,66.8,30.25,NE,50,1.0,2.0,88,0.00,,,0.00,Wunderground v.1.15,2013-08-20 17:06:00,
2013-08-20 13:14:00,71.0,66.9,30.25,ESE,111,0.0,2.0,87,0.00,,,0.00,Wunderground v.1.15,2013-08-20 17:14:00,
2013-08-20 13:20:00,72.5,68.1,30.24,East,101,0.0,2.0,86,0.00,,,0.00,Wunderground v.1.15,2013-08-20 17:20:00,
2013-08-20 13:26:00,72.2,67.1,30.24,ENE,74,0.0,2.0,84,0.00,,,0.00,Wunderground v.1.15,2013-08-20 17:26:00,
2013-08-20 13:32:00,71.8,67.4,30.24,ENE,70,0.0,2.0,86,0.00,,,0.00,Wunderground v.1.15,2013-08-20 17:32:00,
2013-08-20 13:38:00,71.8,67.4,30.24,ENE,67,0.0,2.0,86,0.00,,,0.00,Wunderground v.1.15,2013-08-20 17:38:00,
2013-08-20 13:44:00,71.6,66.8,30.24,ESE,113,1.0,2.0,85,0.00,,,0.00,Wunderground v.1.15,2013-08-20 17:44:00,
2013-08-20 13:50:00,71.3,66.9,30.24,East,88,0.0,2.0,86,0.00,,,0.00,Wunderground v.1.15,2013-08-20 17:50:00,
2013-08-20 13:56:00,70.7,66.6,30.24,East,91,0.0,2.0,87,0.00,,,0.00,Wunderground v.1.15,2013-08-20 17:56:00,
2013-08-20 14:02:00,70.4,66.7,30.24,East,90,0.0,2.0,88,0.00,,,0.00,Wunderground v.1.15,2013-08-20 18:02:00,
2013-08-20 14:08:00,70.2,66.8,30.24,East,81,0.0,2.0,89,0.00,,,0.00,Wunderground v.1.15,2013-08-20 18:08:00,
2013-08-20 14:14:00,70.1,66.4,30.24,SE,127,0.0,2.0,88,0.00,,,0.00,Wunderground v.1.15,2013-08-20 18:14:00,
2013-08-20 14:20:00,70.2,66.8,30.24,ESE,115,0.0,2.0,89,0.00,,,0.00,Wunderground v.1.15,2013-08-20 18:20:00,
2013-08-20 14:26:00,70.2,66.8,30.23,ESE,115,0.0,2.0,89,0.00,,,0.00,Wunderground v.1.15,2013-08-20 18:26:00,
2013-08-20 14:32:00,70.0,66.3,30.23,NW,316,0.0,2.0,88,0.00,,,0.00,Wunderground v.1.15,2013-08-20 18:32:00,
2013-08-20 14:38:00,70.7,66.6,30.23,SSW,205,0.0,2.0,87,0.00,,,0.00,Wunderground v.1.15,2013-08-20 18:38:00,
2013-08-20 14:44:00,71.4,67.3,30.23,SSW,204,0.0,2.0,87,0.00,,,0.00,Wunderground v.1.15,2013-08-20 18:44:00,
2013-08-20 14:50:00,71.8,66.4,30.23,SW,228,0.0,2.0,83,0.00,,,0.00,Wunderground v.1.15,2013-08-20 18:50:00,
2013-08-20 14:56:00,72.1,67.0,30.23,SE,139,0.0,2.0,84,0.00,,,0.00,Wunderground v.1.15,2013-08-20 18:56:00,
2013-08-20 15:02:00,72.9,67.8,30.22,ENE,78,0.0,2.0,84,0.00,,,0.00,Wunderground v.1.15,2013-08-20 19:02:00,
2013-08-20 15:08:00,73.4,67.6,30.22,ESE,115,0.0,2.0,82,0.00,,,0.00,Wunderground v.1.15,2013-08-20 19:08:00,
2013-08-20 15:14:00,73.8,66.9,30.21,WNW,283,1.0,2.0,79,0.00,,,0.00,Wunderground v.1.15,2013-08-20 19:14:00,
2013-08-20 15:20:00,74.2,69.7,30.21,NE,56,1.0,2.0,86,0.00,,,0.00,Wunderground v.1.15,2013-08-20 19:20:00,
2013-08-20 15:26:00,73.9,67.3,30.20,NE,54,1.0,2.0,80,0.00,,,0.00,Wunderground v.1.15,2013-08-20 19:26:00,
2013-08-20 15:32:00,73.0,67.9,30.20,NE,46,1.0,2.0,84,0.00,,,0.00,Wunderground v.1.15,2013-08-20 19:32:00,
2013-08-20 15:38:00,73.1,68.0,30.20,ENE,65,0.0,2.0,84,0.00,,,0.00,Wunderground v.1.15,2013-08-20 19:38:00,
2013-08-20 15:44:00,72.5,67.7,30.20,East,100,0.0,2.0,85,0.00,,,0.00,Wunderground v.1.15,2013-08-20 19:44:00,
2013-08-20 15:50:00,72.7,66.5,30.20,NNE,25,0.0,2.0,81,0.00,,,0.00,Wunderground v.1.15,2013-08-20 19:50:00,
2013-08-20 15:56:00,72.3,66.8,30.19,NNE,23,0.0,2.0,83,0.00,,,0.00,Wunderground v.1.15,2013-08-20 19:56:00,
2013-08-20 16:02:00,72.3,67.5,30.19,NNE,23,0.0,2.0,85,0.00,,,0.00,Wunderground v.1.15,2013-08-20 20:02:00,
2013-08-20 16:08:00,72.1,67.0,30.19,NNE,16,0.0,2.0,84,0.00,,,0.00,Wunderground v.1.15,2013-08-20 20:08:00,
2013-08-20 16:14:00,71.1,66.4,30.19,NNW,343,0.0,2.0,85,0.00,,,0.00,Wunderground v.1.15,2013-08-20 20:14:00,
2013-08-20 16:20:00,70.9,66.8,30.19,NNW,343,0.0,2.0,87,0.00,,,0.00,Wunderground v.1.15,2013-08-20 20:20:00,
2013-08-20 16:26:00,71.2,67.1,30.18,NNW,343,0.0,2.0,87,0.00,,,0.00,Wunderground v.1.15,2013-08-20 20:26:00,
2013-08-20 16:32:00,71.4,67.3,30.18,NNW,343,0.0,2.0,87,0.00,,,0.00,Wunderground v.1.15,2013-08-20 20:32:00,
2013-08-20 16:38:00,71.4,65.6,30.18,NNW,343,0.0,2.0,82,0.00,,,0.00,Wunderground v.1.15,2013-08-20 20:38:00,
2013-08-20 16:44:00,71.5,65.7,30.19,NNW,343,0.0,2.0,82,0.00,,,0.00,Wunderground v.1.15,2013-08-20 20:44:00,
2013-08-20 16:50:00,71.6,65.5,30.19,NNW,343,0.0,2.0,81,0.00,,,0.00,Wunderground v.1.15,2013-08-20 20:50:00,
2013-08-20 16:56:00,71.8,66.7,30.19,NNW,343,0.0,2.0,84,0.00,,,0.00,Wunderground v.1.15,2013-08-20 20:56:00,
2013-08-20 17:02:00,71.8,66.7,30.19,NNW,343,0.0,2.0,84,0.00,,,0.00,Wunderground v.1.15,2013-08-20 21:02:00,
2013-08-20 17:08:00,71.6,66.8,30.19,NNW,344,0.0,2.0,85,0.00,,,0.00,Wunderground v.1.15,2013-08-20 21:08:00,
2013-08-20 17:14:00,71.5,67.4,30.18,NNW,345,0.0,2.0,87,0.00,,,0.00,Wunderground v.1.15,2013-08-20 21:14:00,
2013-08-20 17:20:00,70.8,67.1,30.19,NNW,345,0.0,2.0,88,0.00,,,0.00,Wunderground v.1.15,2013-08-20 21:20:00,
2013-08-20 17:26:00,70.2,66.8,30.19,NNW,344,0.0,2.0,89,0.00,,,0.00,Wunderground v.1.15,2013-08-20 21:26:00,
2013-08-20 17:32:00,69.9,66.8,30.19,NNW,345,0.0,2.0,90,0.00,,,0.00,Wunderground v.1.15,2013-08-20 21:32:00,
2013-08-20 17:38:00,69.7,66.6,30.20,NNW,344,0.0,2.0,90,0.00,,,0.00,Wunderground v.1.15,2013-08-20 21:38:00,
2013-08-20 17:44:00,69.4,66.3,30.20,NNW,344,0.0,2.0,90,0.00,,,0.00,Wunderground v.1.15,2013-08-20 21:44:00,
2013-08-20 17:50:00,68.7,66.0,30.20,SW,224,0.0,2.0,91,1.66,,,0.03,Wunderground v.1.15,2013-08-20 21:50:00,
2013-08-20 17:56:00,67.4,65.3,30.20,SSW,212,1.0,2.0,93,2.09,,,0.12,Wunderground v.1.15,2013-08-20 21:56:00,
2013-08-20 18:02:00,66.3,64.5,30.20,SW,223,1.0,2.0,94,0.72,,,0.21,Wunderground v.1.15,2013-08-20 22:02:00,
2013-08-20 18:08:00,65.7,63.9,30.19,SW,222,0.0,2.0,94,0.24,,,0.24,Wunderground v.1.15,2013-08-20 22:08:00,
2013-08-20 18:14:00,65.6,64.4,30.19,SW,223,0.0,2.0,96,0.15,,,0.26,Wunderground v.1.15,2013-08-20 22:14:00,
2013-08-20 18:20:00,65.8,64.9,30.19,SW,222,0.0,2.0,97,0.09,,,0.27,Wunderground v.1.15,2013-08-20 22:20:00,
2013-08-20 18:26:00,65.9,65.0,30.19,SW,222,0.0,2.0,97,0.08,,,0.27,Wunderground v.1.15,2013-08-20 22:26:00,
2013-08-20 18:32:00,65.6,64.4,30.19,SW,222,0.0,2.0,96,0.05,,,0.27,Wunderground v.1.15,2013-08-20 22:32:00,
2013-08-20 18:38:00,65.6,64.7,30.18,SW,222,0.0,2.0,97,0.00,,,0.27,Wunderground v.1.15,2013-08-20 22:38:00,
2013-08-20 18:44:00,65.2,64.0,30.19,SW,223,0.0,2.0,96,0.00,,,0.27,Wunderground v.1.15,2013-08-20 22:44:00,
2013-08-20 18:50:00,65.0,64.1,30.19,SW,222,0.0,2.0,97,0.00,,,0.27,Wunderground v.1.15,2013-08-20 22:50:00,
2013-08-20 18:56:00,64.8,63.9,30.18,SW,222,0.0,2.0,97,0.00,,,0.27,Wunderground v.1.15,2013-08-20 22:56:00,
2013-08-20 19:02:00,64.3,63.1,30.19,SW,222,0.0,2.0,96,0.00,,,0.27,Wunderground v.1.15,2013-08-20 23:02:00,
2013-08-20 19:08:00,63.9,63.0,30.19,SW,222,1.0,2.0,97,0.00,,,0.27,Wunderground v.1.15,2013-08-20 23:08:00,
2013-08-20 19:14:00,64.0,62.8,30.19,SW,223,1.0,2.0,96,0.00,,,0.27,Wunderground v.1.15,2013-08-20 23:14:00,
2013-08-20 19:20:00,63.9,62.7,30.19,SW,222,0.0,2.0,96,0.00,,,0.27,Wunderground v.1.15,2013-08-20 23:20:00,
2013-08-20 19:26:00,63.9,63.0,30.20,SW,223,0.0,2.0,97,0.00,,,0.27,Wunderground v.1.15,2013-08-20 23:26:00,
2013-08-20 19:32:00,63.7,62.5,30.20,SW,222,0.0,2.0,96,0.00,,,0.27,Wunderground v.1.15,2013-08-20 23:32:00,
2013-08-20 19:38:00,63.7,62.5,30.20,SW,224,0.0,2.0,96,0.00,,,0.27,Wunderground v.1.15,2013-08-20 23:38:00,
2013-08-20 19:44:00,64.0,62.2,30.20,SW,228,1.0,2.0,94,0.00,,,0.27,Wunderground v.1.15,2013-08-20 23:44:00,
2013-08-20 19:50:00,64.2,62.7,30.20,SW,223,1.0,2.0,95,0.00,,,0.27,Wunderground v.1.15,2013-08-20 23:50:00,
2013-08-20 19:56:00,64.4,63.2,30.20,SW,219,1.0,2.0,96,0.00,,,0.27,Wunderground v.1.15,2013-08-20 23:56:00,
2013-08-20 20:02:00,64.5,63.6,30.21,SW,224,1.0,2.0,97,0.00,,,0.27,Wunderground v.1.15,2013-08-21 00:02:00,
2013-08-20 20:08:00,64.5,63.6,30.21,SW,225,2.0,2.0,97,0.00,,,0.27,Wunderground v.1.15,2013-08-21 00:08:00,
2013-08-20 20:14:00,64.4,63.2,30.21,SW,223,2.0,2.0,96,0.00,,,0.27,Wunderground v.1.15,2013-08-21 00:14:00,
2013-08-20 20:20:00,64.6,63.4,30.21,SW,224,2.0,2.0,96,0.00,,,0.27,Wunderground v.1.15,2013-08-21 00:20:00,
2013-08-20 20:26:00,64.6,63.7,30.21,SW,217,2.0,2.0,97,0.00,,,0.27,Wunderground v.1.15,2013-08-21 00:26:00,
2013-08-20 20:32:00,64.6,63.7,30.21,SW,231,1.0,2.0,97,0.00,,,0.27,Wunderground v.1.15,2013-08-21 00:32:00,
2013-08-20 20:38:00,64.6,63.7,30.21,SW,226,1.0,2.0,97,0.00,,,0.27,Wunderground v.1.15,2013-08-21 00:38:00,
2013-08-20 20:44:00,64.6,63.7,30.21,SW,224,1.0,2.0,97,0.00,,,0.27,Wunderground v.1.15,2013-08-21 00:44:00,
2013-08-20 20:50:00,64.7,64.1,30.21,SW,231,1.0,2.0,98,0.00,,,0.27,Wunderground v.1.15,2013-08-21 00:50:00,
2013-08-20 20:56:00,64.8,64.2,30.21,SSW,211,2.0,2.0,98,0.00,,,0.27,Wunderground v.1.15,2013-08-21 00:56:00,
2013-08-20 21:02:00,64.8,64.2,30.22,SW,227,1.0,2.0,98,0.00,,,0.27,Wunderground v.1.15,2013-08-21 01:02:00,
2013-08-20 21:08:00,64.8,64.2,30.22,SW,223,1.0,2.0,98,0.00,,,0.27,Wunderground v.1.15,2013-08-21 01:08:00,
2013-08-20 21:14:00,64.7,64.4,30.22,SW,217,1.0,2.0,99,0.00,,,0.27,Wunderground v.1.15,2013-08-21 01:14:00,
2013-08-20 21:20:00,64.7,64.4,30.22,SW,214,1.0,2.0,99,0.00,,,0.27,Wunderground v.1.15,2013-08-21 01:20:00,
2013-08-20 21:26:00,64.7,64.4,30.22,SSW,210,1.0,2.0,99,0.00,,,0.27,Wunderground v.1.15,2013-08-21 01:26:00,
2013-08-20 21:32:00,64.7,64.4,30.22,SSW,207,1.0,2.0,99,0.00,,,0.27,Wunderground v.1.15,2013-08-21 01:32:00,
2013-08-20 21:38:00,64.7,64.4,30.22,SW,231,1.0,2.0,99,0.00,,,0.27,Wunderground v.1.15,2013-08-21 01:38:00,
2013-08-20 21:44:00,64.7,64.4,30.22,SW,218,1.0,2.0,99,0.00,,,0.27,Wunderground v.1.15,2013-08-21 01:44:00,
2013-08-20 21:50:00,64.7,64.4,30.23,SW,217,1.0,2.0,99,0.00,,,0.27,Wunderground v.1.15,2013-08-21 01:50:00,
2013-08-20 21:56:00,64.7,64.4,30.23,SW,221,1.0,2.0,99,0.00,,,0.27,Wunderground v.1.15,2013-08-21 01:56:00,
2013-08-20 21:58:00,64.7,64.4,30.23,SW,221,1.0,2.0,99,0.00,,,0.27,Wunderground v.1.15,2013-08-21 01:58:00,
2013-08-20 22:04:00,64.7,64.4,30.23,SW,214,1.0,2.0,99,0.00,,,0.27,Wunderground v.1.15,2013-08-21 02:04:00,
2013-08-20 22:10:00,64.7,64.4,30.23,SW,236,1.0,2.0,99,0.00,,,0.27,Wunderground v.1.15,2013-08-21 02:10:00,
2013-08-20 22:16:00,64.7,64.7,30.23,SW,219,1.0,2.0,100,0.00,,,0.27,Wunderground v.1.15,2013-08-21 02:16:00,
2013-08-20 22:22:00,64.6,64.6,30.23,SSW,208,1.0,2.0,100,0.00,,,0.27,Wunderground v.1.15,2013-08-21 02:22:00,
2013-08-20 22:28:00,64.6,64.6,30.23,SW,222,1.0,2.0,100,0.00,,,0.27,Wunderground v.1.15,2013-08-21 02:28:00,
2013-08-20 22:34:00,64.5,64.5,30.23,SW,224,1.0,2.0,100,0.00,,,0.27,Wunderground v.1.15,2013-08-21 02:34:00,
2013-08-20 22:40:00,64.5,64.5,30.23,South,173,1.0,1.0,100,0.00,,,0.27,Wunderground v.1.15,2013-08-21 02:40:00,
2013-08-20 22:46:00,64.5,64.5,30.23,SSE,148,1.0,2.0,100,0.00,,,0.27,Wunderground v.1.15,2013-08-21 02:46:00,
2013-08-20 22:52:00,64.5,64.5,30.23,SW,226,1.0,2.0,100,0.00,,,0.27,Wunderground v.1.15,2013-08-21 02:52:00,
2013-08-20 22:58:00,64.5,64.5,30.23,SSE,148,1.0,2.0,100,0.00,,,0.27,Wunderground v.1.15,2013-08-21 02:58:00,
2013-08-20 23:04:00,64.5,64.5,30.23,SSW,194,0.0,2.0,100,0.00,,,0.27,Wunderground v.1.15,2013-08-21 03:04:00,
2013-08-20 23:10:00,64.4,64.4,30.23,SSE,150,0.0,2.0,100,0.00,,,0.27,Wunderground v.1.15,2013-08-21 03:10:00,
2013-08-20 23:16:00,64.4,64.4,30.24,SSE,158,0.0,2.0,100,0.00,,,0.27,Wunderground v.1.15,2013-08-21 03:16:00,
2013-08-20 23:22:00,64.4,64.4,30.24,SW,219,0.0,2.0,100,0.00,,,0.27,Wunderground v.1.15,2013-08-21 03:22:00,
2013-08-20 23:28:00,64.4,64.4,30.24,SW,215,0.0,2.0,100,0.00,,,0.27,Wunderground v.1.15,2013-08-21 03:28:00,
2013-08-20 23:34:00,64.4,64.4,30.24,SSE,162,0.0,2.0,100,0.00,,,0.27,Wunderground v.1.15,2013-08-21 03:34:00,
2013-08-20 23:40:00,64.4,64.4,30.24,SE,146,0.0,2.0,100,0.00,,,0.27,Wunderground v.1.15,2013-08-21 03:40:00,
2013-08-20 23:46:00,64.4,64.4,30.24,SE,146,0.0,2.0,100,0.00,,,0.27,Wunderground v.1.15,2013-08-21 03:46:00,
2013-08-20 23:52:00,64.3,64.3,30.24,SSW,210,0.0,2.0,100,0.00,,,0.27,Wunderground v.1.15,2013-08-21 03:52:00,
2013-08-20 23:58:00,64.2,64.2,30.24,SSW,200,0.0,2.0,100,0.00,,,0.27,Wunderground v.1.15,2013-08-21 03:58:00,